createdAt,value
2023-06-24T00:01:02.431Z,93650.31
2023-06-24T00:03:30.666Z,93640.13
2023-06-24T00:05:58.866Z,93650.84
2023-06-24T00:08:35.707Z,93646.34
2023-06-24T00:11:04.625Z,93644.16
2023-06-24T00:13:32.548Z,93647.03
2023-06-24T00:16:02.784Z,93643.16
2023-06-24T00:18:31.030Z,93641.94
2023-06-24T00:20:58.976Z,93646.66
2023-06-24T00:23:27.019Z,93639.53
2023-06-24T00:25:56.741Z,93641.75
2023-06-24T00:28:24.836Z,93637.94
2023-06-24T00:30:53.815Z,93637.16
2023-06-24T00:33:22.309Z,93627.56
2023-06-24T00:35:50.199Z,93601.31
2023-06-24T00:38:18.040Z,93647.66
2023-06-24T00:40:47.580Z,93640.25
2023-06-24T00:43:16.352Z,93634.44
2023-06-24T00:45:45.129Z,93637.34
2023-06-24T00:48:14.754Z,93641.53
2023-06-24T00:50:46.925Z,93635.84
2023-06-24T00:53:14.956Z,93640.06
2023-06-24T00:55:45.322Z,93634.44
2023-06-24T00:58:22.041Z,93636.03
2023-06-24T01:00:58.417Z,93637.16
2023-06-24T01:03:27.341Z,93635.72
2023-06-24T01:05:56.428Z,93644.44
2023-06-24T01:08:24.677Z,93643.50
2023-06-24T01:10:53.526Z,93648.03
2023-06-24T01:13:21.753Z,93646.91
2023-06-24T01:15:50.398Z,93640.00
2023-06-24T01:18:31.352Z,93633.41
2023-06-24T01:21:27.364Z,93629.69
2023-06-24T01:24:01.658Z,93632.06
2023-06-24T01:27:14.083Z,93625.28
2023-06-24T01:30:06.431Z,93645.03
2023-06-24T01:33:10.152Z,93648.13
2023-06-24T01:35:39.703Z,93637.63
2023-06-24T01:38:26.235Z,93638.13
2023-06-24T01:40:56.600Z,93637.63
2023-06-24T01:43:25.965Z,93632.44
2023-06-24T01:45:57.592Z,93636.72
2023-06-24T01:48:29.788Z,93642.00
2023-06-24T01:51:23.897Z,93631.69
2023-06-24T01:54:03.699Z,93630.97
2023-06-24T01:56:33.263Z,93635.41
2023-06-24T01:59:05.230Z,93637.50
2023-06-24T02:01:34.922Z,93632.22
2023-06-24T02:04:04.778Z,93637.22
2023-06-24T02:06:33.479Z,93644.72
2023-06-24T02:09:02.361Z,93642.75
2023-06-24T02:11:32.952Z,93644.19
2023-06-24T02:14:03.853Z,93645.53
2023-06-24T02:16:34.861Z,93651.41
2023-06-24T02:19:06.115Z,93650.63
2023-06-24T02:21:36.760Z,93648.00
2023-06-24T02:24:05.917Z,93652.81
2023-06-24T02:26:35.465Z,93659.59
2023-06-24T02:29:06.165Z,93653.69
2023-06-24T02:31:34.261Z,93660.38
2023-06-24T02:34:02.513Z,93658.81
2023-06-24T02:36:30.581Z,93670.47
2023-06-24T02:38:58.492Z,93675.06
2023-06-24T02:41:26.451Z,93669.78
2023-06-24T02:43:54.605Z,93681.50
2023-06-24T02:46:30.762Z,93695.19
2023-06-24T02:48:59.445Z,93684.13
2023-06-24T02:52:40.266Z,93695.84
2023-06-24T02:55:11.714Z,93702.63
2023-06-24T02:57:41.570Z,93705.06
2023-06-24T03:00:28.849Z,93689.44
2023-06-24T03:03:23.646Z,93705.19
2023-06-24T03:05:58.033Z,93687.78
2023-06-24T03:08:29.061Z,93695.84
2023-06-24T03:10:59.659Z,93693.19
2023-06-24T03:13:30.910Z,93688.44
2023-06-24T03:16:13.554Z,93699.84
2023-06-24T03:18:50.257Z,93704.94
2023-06-24T03:21:18.544Z,93706.34
2023-06-24T03:23:46.718Z,93698.25
2023-06-24T03:26:16.957Z,93699.22
2023-06-24T03:28:45.472Z,93694.75
2023-06-24T03:31:18.146Z,93688.50
2023-06-24T03:33:46.838Z,93703.06
2023-06-24T03:36:17.232Z,93709.81
2023-06-24T03:38:46.052Z,93712.53
2023-06-24T03:41:14.235Z,93708.31
2023-06-24T03:43:43.291Z,93712.69
2023-06-24T03:46:11.763Z,93721.97
2023-06-24T03:48:40.140Z,93736.41
2023-06-24T03:51:08.152Z,93733.91
2023-06-24T03:53:36.123Z,93745.63
2023-06-24T03:56:04.750Z,93738.72
2023-06-24T03:58:32.865Z,93726.91
2023-06-24T04:01:01.874Z,93735.72
2023-06-24T04:03:30.441Z,93743.16
2023-06-24T04:05:58.814Z,93734.44
2023-06-24T04:08:30.530Z,93740.81
2023-06-24T04:11:01.448Z,93736.19
2023-06-24T04:13:29.476Z,93732.94
2023-06-24T04:15:57.456Z,93731.97
2023-06-24T04:18:25.847Z,93738.47
2023-06-24T04:20:55.714Z,93734.84
2023-06-24T04:23:23.872Z,93732.66
2023-06-24T04:25:52.032Z,93737.31
2023-06-24T04:28:22.647Z,93739.28
2023-06-24T04:30:53.200Z,93735.34
2023-06-24T04:33:21.373Z,93732.94
2023-06-24T04:35:49.446Z,93744.06
2023-06-24T04:38:19.707Z,93742.16
2023-06-24T04:40:49.475Z,93744.97
2023-06-24T04:43:17.598Z,93712.16
2023-06-24T04:45:45.714Z,93729.50
2023-06-24T04:48:13.784Z,93729.09
2023-06-24T04:50:42.130Z,93727.22
2023-06-24T04:53:10.613Z,93730.78
2023-06-24T04:55:38.776Z,93736.31
2023-06-24T04:58:07.051Z,93731.72
2023-06-24T05:00:35.379Z,93725.00
2023-06-24T05:03:03.649Z,93723.22
2023-06-24T05:05:35.092Z,93719.50
2023-06-24T05:08:04.425Z,93726.78
2023-06-24T05:10:32.460Z,93726.75
2023-06-24T05:13:00.424Z,93725.59
2023-06-24T05:15:28.601Z,93723.72
2023-06-24T05:17:57.613Z,93715.88
2023-06-24T05:20:25.647Z,93714.06
2023-06-24T05:22:53.727Z,93712.59
2023-06-24T05:25:21.730Z,93706.28
2023-06-24T05:27:49.728Z,93709.25
2023-06-24T05:30:17.839Z,93710.16
2023-06-24T05:32:45.913Z,93701.25
2023-06-24T05:35:14.127Z,93695.50
2023-06-24T05:37:42.237Z,93695.38
2023-06-24T05:40:10.925Z,93694.69
2023-06-24T05:42:38.897Z,93692.03
2023-06-24T05:45:07.925Z,93684.56
2023-06-24T05:47:36.000Z,93686.03
2023-06-24T05:50:04.290Z,93680.44
2023-06-24T05:52:32.345Z,93666.41
2023-06-24T05:55:07.551Z,93677.56
2023-06-24T05:57:35.594Z,93682.19
2023-06-24T06:00:06.445Z,93682.56
2023-06-24T06:02:40.552Z,93671.41
2023-06-24T06:05:08.802Z,93640.31
2023-06-24T06:07:39.553Z,93662.47
2023-06-24T06:10:08.265Z,93666.28
2023-06-24T06:12:36.370Z,93671.28
2023-06-24T06:15:05.052Z,93676.94
2023-06-24T06:17:37.692Z,93669.81
2023-06-24T06:20:06.856Z,93675.69
2023-06-24T06:22:39.055Z,93658.13
2023-06-24T06:25:07.946Z,93662.56
2023-06-24T06:27:36.255Z,93662.75
2023-06-24T06:30:05.337Z,93664.56
2023-06-24T06:32:34.033Z,93637.97
2023-06-24T06:35:02.610Z,93657.94
2023-06-24T06:37:30.612Z,93664.09
2023-06-24T06:39:58.960Z,93658.72
2023-06-24T06:42:27.277Z,93654.22
2023-06-24T06:44:55.845Z,93656.28
2023-06-24T06:47:24.483Z,93661.22
2023-06-24T06:49:52.588Z,93663.03
2023-06-24T06:52:20.697Z,93661.09
2023-06-24T06:54:48.628Z,93660.25
2023-06-24T06:57:19.993Z,93665.00
2023-06-24T06:59:51.207Z,93667.09
2023-06-24T07:02:20.585Z,93666.59
2023-06-24T07:04:49.517Z,93655.50
2023-06-24T07:07:18.836Z,93662.69
2023-06-24T07:09:49.428Z,93669.56
2023-06-24T07:12:19.305Z,93666.50
2023-06-24T07:14:47.930Z,93665.81
2023-06-24T07:17:16.192Z,93674.78
2023-06-24T07:19:44.590Z,93675.59
2023-06-24T07:22:13.464Z,93661.56
2023-06-24T07:24:42.534Z,93673.78
2023-06-24T07:27:11.211Z,93659.19
2023-06-24T07:29:39.922Z,93665.41
2023-06-24T07:32:09.091Z,93665.03
2023-06-24T07:34:40.272Z,93659.75
2023-06-24T07:37:22.822Z,93667.06
2023-06-24T07:39:53.388Z,93666.00
2023-06-24T07:42:22.001Z,93660.25
2023-06-24T07:44:51.229Z,93660.59
2023-06-24T07:47:20.497Z,93653.97
2023-06-24T07:49:52.103Z,93658.13
2023-06-24T07:52:20.915Z,93660.13
2023-06-24T07:54:50.090Z,93663.44
2023-06-24T07:57:18.783Z,93662.53
2023-06-24T07:59:48.353Z,93648.13
2023-06-24T08:02:18.228Z,93660.69
2023-06-24T08:04:46.917Z,93664.69
2023-06-24T08:07:16.610Z,93655.81
2023-06-24T08:09:45.282Z,93664.91
2023-06-24T08:12:13.782Z,93662.31
2023-06-24T08:14:42.506Z,93661.97
2023-06-24T08:17:11.179Z,93659.25
2023-06-24T08:19:39.765Z,93665.59
2023-06-24T08:22:08.387Z,93662.56
2023-06-24T08:24:38.045Z,93653.91
2023-06-24T08:27:06.384Z,93657.19
2023-06-24T08:29:35.070Z,93658.22
2023-06-24T08:32:03.531Z,93652.03
2023-06-24T08:34:31.948Z,93655.66
2023-06-24T08:37:00.738Z,93647.78
2023-06-24T08:39:29.200Z,93644.03
2023-06-24T08:41:57.798Z,93652.72
2023-06-24T08:44:26.478Z,93651.63
2023-06-24T08:46:55.255Z,93648.47
2023-06-24T08:49:27.572Z,93643.38
2023-06-24T08:52:12.655Z,93636.03
2023-06-24T08:54:42.868Z,93631.81
2023-06-24T08:57:16.077Z,93628.59
2023-06-24T08:59:44.734Z,93621.03
2023-06-24T09:02:15.317Z,93619.56
2023-06-24T09:04:44.051Z,93617.22
2023-06-24T09:07:13.513Z,93625.16
2023-06-24T09:09:48.606Z,93618.94
2023-06-24T09:12:19.802Z,93628.09
2023-06-24T09:14:51.494Z,93628.50
2023-06-24T09:17:24.222Z,93629.25
2023-06-24T09:19:53.456Z,93616.75
2023-06-24T09:22:21.701Z,93617.72
2023-06-24T09:24:50.212Z,93621.38
2023-06-24T09:27:23.521Z,93623.97
2023-06-24T09:29:53.599Z,93631.75
2023-06-24T09:32:22.384Z,93624.78
2023-06-24T09:34:51.442Z,93633.59
2023-06-24T09:37:25.030Z,93634.09
2023-06-24T09:39:54.813Z,93634.81
2023-06-24T09:42:24.942Z,93632.75
2023-06-24T09:44:57.633Z,93625.53
2023-06-24T09:47:28.625Z,93633.56
2023-06-24T09:49:57.167Z,93636.22
2023-06-24T09:52:28.031Z,93629.19
2023-06-24T09:54:58.244Z,93630.38
2023-06-24T09:57:33.622Z,93631.97
2023-06-24T10:00:03.578Z,93632.47
2023-06-24T10:02:35.444Z,93631.47
2023-06-24T10:05:06.057Z,93632.16
2023-06-24T10:07:37.763Z,93624.50
2023-06-24T10:10:07.236Z,93619.72
2023-06-24T10:12:37.496Z,93625.19
2023-06-24T10:15:07.758Z,93611.78
2023-06-24T10:17:36.602Z,93598.50
2023-06-24T10:20:07.685Z,93602.56
2023-06-24T10:22:37.753Z,93591.56
2023-06-24T10:25:09.713Z,93581.66
2023-06-24T10:27:41.605Z,93579.44
2023-06-24T10:30:18.004Z,93577.69
2023-06-24T10:32:47.327Z,93580.09
2023-06-24T10:35:27.456Z,93569.28
2023-06-24T10:37:58.510Z,93571.91
2023-06-24T10:40:40.880Z,93566.81
2023-06-24T10:43:27.002Z,93558.44
2023-06-24T10:46:00.698Z,93544.13
2023-06-24T10:48:29.431Z,93547.81
2023-06-24T10:50:58.091Z,93555.50
2023-06-24T10:53:27.588Z,93553.25
2023-06-24T10:55:59.275Z,93563.38
2023-06-24T10:58:28.134Z,93558.94
2023-06-24T11:01:10.265Z,93557.34
2023-06-24T11:03:42.653Z,93551.53
2023-06-24T11:06:13.602Z,93539.50
2023-06-24T11:08:46.778Z,93546.31
2023-06-24T11:11:22.839Z,93545.50
2023-06-24T11:13:52.195Z,93540.97
2023-06-24T11:16:23.755Z,93540.84
2023-06-24T11:18:52.484Z,93542.00
2023-06-24T11:21:21.013Z,93551.97
2023-06-24T11:23:49.615Z,93553.72
2023-06-24T11:26:18.378Z,93555.56
2023-06-24T11:28:50.827Z,93546.13
2023-06-24T11:31:19.632Z,93549.47
2023-06-24T11:33:51.462Z,93545.47
2023-06-24T11:36:24.013Z,93547.75
2023-06-24T11:38:52.731Z,93555.44
2023-06-24T11:41:23.336Z,93562.00
2023-06-24T11:43:51.953Z,93565.47
2023-06-24T11:46:30.103Z,93555.44
2023-06-24T11:49:08.783Z,93556.72
2023-06-24T11:51:37.946Z,93555.50
2023-06-24T11:54:07.748Z,93551.38
2023-06-24T11:56:38.134Z,93549.81
2023-06-24T11:59:18.845Z,93548.88
2023-06-24T12:02:04.569Z,93528.63
2023-06-24T12:04:34.355Z,93526.81
2023-06-24T12:07:03.544Z,93525.88
2023-06-24T12:09:32.224Z,93501.41
2023-06-24T12:12:00.736Z,93510.13
2023-06-24T12:14:29.434Z,93503.19
2023-06-24T12:16:57.888Z,93498.81
2023-06-24T12:19:26.560Z,93485.66
2023-06-24T12:21:55.082Z,93488.63
2023-06-24T12:24:23.678Z,93491.47
2023-06-24T12:26:52.970Z,93505.59
2023-06-24T12:29:21.664Z,93507.66
2023-06-24T12:31:50.244Z,93516.31
2023-06-24T12:34:19.147Z,93520.47
2023-06-24T12:36:47.788Z,93531.72
2023-06-24T12:39:19.115Z,93538.16
2023-06-24T12:41:49.366Z,93538.75
2023-06-24T12:44:17.852Z,93532.13
2023-06-24T12:46:46.560Z,93519.56
2023-06-24T12:49:15.174Z,93532.31
2023-06-24T12:51:44.066Z,93534.47
2023-06-24T12:54:12.932Z,93545.03
2023-06-24T12:56:41.352Z,93549.44
2023-06-24T12:59:10.526Z,93551.03
2023-06-24T13:01:39.382Z,93560.38
2023-06-24T13:04:08.093Z,93546.16
2023-06-24T13:06:36.694Z,93546.59
2023-06-24T13:09:05.360Z,93542.69
2023-06-24T13:11:34.056Z,93536.44
2023-06-24T13:14:02.626Z,93524.59
2023-06-24T13:16:31.308Z,93514.97
2023-06-24T13:18:59.889Z,93497.94
2023-06-24T13:21:28.530Z,93491.41
2023-06-24T13:23:57.131Z,93480.91
2023-06-24T13:26:26.262Z,93478.66
2023-06-24T13:28:56.039Z,93487.22
2023-06-24T13:31:25.030Z,93491.41
2023-06-24T13:33:53.622Z,93497.16
2023-06-24T13:36:38.829Z,93523.53
2023-06-24T13:39:10.317Z,93539.19
2023-06-24T13:41:39.166Z,93560.00
2023-06-24T13:44:07.878Z,93574.00
2023-06-24T13:46:36.709Z,93593.34
2023-06-24T13:49:06.446Z,93604.38
2023-06-24T13:51:36.023Z,93602.78
2023-06-24T13:54:05.293Z,93613.81
2023-06-24T13:56:33.730Z,93600.84
2023-06-24T13:59:02.425Z,93588.63
2023-06-24T14:01:31.233Z,93581.13
2023-06-24T14:04:02.595Z,93579.25
2023-06-24T14:06:31.155Z,93559.66
2023-06-24T14:08:59.734Z,93571.56
2023-06-24T14:11:28.592Z,93599.91
2023-06-24T14:13:57.319Z,93595.78
2023-06-24T14:16:26.133Z,93547.03
2023-06-24T14:18:54.918Z,93553.56
2023-06-24T14:21:23.685Z,93553.06
2023-06-24T14:23:53.114Z,93558.84
2023-06-24T14:26:23.836Z,93559.91
2023-06-24T14:28:52.378Z,93554.91
2023-06-24T14:31:21.177Z,93553.22
2023-06-24T14:33:50.032Z,93560.59
2023-06-24T14:36:18.598Z,93556.03
2023-06-24T14:38:47.306Z,93559.19
2023-06-24T14:41:15.816Z,93561.84
2023-06-24T14:43:44.751Z,93561.06
2023-06-24T14:46:13.499Z,93578.06
2023-06-24T14:48:44.823Z,93610.25
2023-06-24T14:51:13.653Z,93626.91
2023-06-24T14:53:42.189Z,93642.72
2023-06-24T14:56:10.815Z,93645.09
2023-06-24T14:58:40.033Z,93640.31
2023-06-24T15:01:08.643Z,93651.50
2023-06-24T15:03:37.313Z,93693.25
2023-06-24T15:06:06.135Z,93721.19
2023-06-24T15:08:34.882Z,93710.19
2023-06-24T15:15:53.593Z,93719.00
2023-06-24T15:18:22.420Z,93703.72
2023-06-24T15:20:51.028Z,93689.03
2023-06-24T15:23:19.530Z,93680.31
2023-06-24T15:25:48.172Z,93664.19
2023-06-24T15:28:16.483Z,93599.06
2023-06-24T15:30:44.902Z,93641.06
2023-06-24T15:33:13.264Z,93636.13
2023-06-24T15:35:42.085Z,93655.75
2023-06-24T15:38:10.702Z,93656.03
2023-06-24T15:40:42.576Z,93651.03
2023-06-24T15:43:12.753Z,93637.72
2023-06-24T15:45:41.889Z,93635.78
2023-06-24T15:48:10.630Z,93643.47
2023-06-24T15:50:41.156Z,93651.13
2023-06-24T15:53:09.840Z,93655.94
2023-06-24T15:55:38.434Z,93661.06
2023-06-24T15:58:07.111Z,93661.72
2023-06-24T16:00:35.855Z,93681.09
2023-06-24T16:03:05.139Z,93684.56
2023-06-24T16:05:38.773Z,93683.91
2023-06-24T16:08:07.803Z,93673.72
2023-06-24T16:10:36.437Z,93642.78
2023-06-24T16:13:05.302Z,93614.50
2023-06-24T16:15:34.243Z,93584.03
2023-06-24T16:18:02.800Z,93588.47
2023-06-24T16:20:31.520Z,93627.09
2023-06-24T16:23:00.208Z,93653.06
2023-06-24T16:25:28.808Z,93640.28
2023-06-24T16:27:57.713Z,93632.97
2023-06-24T16:30:26.224Z,93630.81
2023-06-24T16:32:54.897Z,93644.13
2023-06-24T16:35:23.501Z,93648.13
2023-06-24T16:37:52.319Z,93641.91
2023-06-24T16:40:22.075Z,93656.50
2023-06-24T16:42:50.588Z,93648.66
2023-06-24T16:45:19.558Z,93634.50
2023-06-24T16:47:48.025Z,93640.31
2023-06-24T16:50:16.676Z,93640.41
2023-06-24T16:52:45.518Z,93640.28
2023-06-24T16:55:14.832Z,93628.16
2023-06-24T16:57:43.595Z,93624.03
2023-06-24T17:00:13.405Z,93617.22
2023-06-24T17:02:42.894Z,93619.59
2023-06-24T17:05:11.589Z,93629.81
2023-06-24T17:07:40.331Z,93629.91
2023-06-24T17:10:09.207Z,93619.97
2023-06-24T17:12:39.727Z,93612.13
2023-06-24T17:15:11.581Z,93629.72
2023-06-24T17:17:40.708Z,93627.91
2023-06-24T17:20:10.016Z,93625.69
2023-06-24T17:22:38.590Z,93627.22
2023-06-24T17:25:07.021Z,93595.56
2023-06-24T17:27:36.043Z,93596.53
2023-06-24T17:30:05.113Z,93607.22
2023-06-24T17:32:33.860Z,93604.50
2023-06-24T17:35:02.502Z,93628.56
2023-06-24T17:37:31.072Z,93658.06
2023-06-24T17:39:59.679Z,93696.94
2023-06-24T17:42:31.128Z,93683.31
2023-06-24T17:44:59.780Z,93679.88
2023-06-24T17:47:28.471Z,93668.91
2023-06-24T17:49:57.212Z,93661.03
2023-06-24T17:52:26.012Z,93659.13
2023-06-24T17:54:54.801Z,93650.06
2023-06-24T17:57:23.355Z,93652.47
2023-06-24T17:59:51.964Z,93655.84
2023-06-24T18:02:20.742Z,93648.22
2023-06-24T18:04:52.259Z,93646.13
2023-06-24T18:07:21.888Z,93646.50
2023-06-24T18:09:51.447Z,93624.53
2023-06-24T18:12:20.098Z,93619.66
2023-06-24T18:14:48.711Z,93627.13
2023-06-24T18:17:20.062Z,93616.72
2023-06-24T18:19:49.629Z,93631.03
2023-06-24T18:22:18.256Z,93617.38
2023-06-24T18:24:46.825Z,93611.88
2023-06-24T18:27:16.679Z,93613.41
2023-06-24T18:29:45.252Z,93597.31
2023-06-24T18:32:13.933Z,93603.03
2023-06-24T18:34:42.144Z,93605.31
2023-06-24T18:37:10.791Z,93600.75
2023-06-24T18:39:39.216Z,93593.19
2023-06-24T18:42:07.792Z,93583.59
2023-06-24T18:44:36.482Z,93595.69
2023-06-24T18:47:06.062Z,93588.91
2023-06-24T18:49:34.602Z,93597.50
2023-06-24T18:52:04.239Z,93603.88
2023-06-24T18:54:35.567Z,93607.72
2023-06-24T18:57:04.686Z,93606.00
2023-06-24T18:59:33.344Z,93614.28
2023-06-24T19:02:02.146Z,93613.84
2023-06-24T19:04:32.229Z,93623.72
2023-06-24T19:07:03.149Z,93625.69
2023-06-24T19:09:31.806Z,93624.53
2023-06-24T19:12:01.328Z,93627.19
2023-06-24T19:14:30.079Z,93626.56
2023-06-24T19:16:58.800Z,93619.25
2023-06-24T19:19:27.548Z,93640.66
2023-06-24T19:21:56.187Z,93638.38
2023-06-24T19:24:24.784Z,93645.78
2023-06-24T19:26:53.096Z,93651.97
2023-06-24T19:29:21.725Z,93645.44
2023-06-24T19:31:50.518Z,93651.19
2023-06-24T19:34:19.253Z,93643.38
2023-06-24T19:36:48.145Z,93631.44
2023-06-24T19:39:18.453Z,93620.84
2023-06-24T19:41:47.214Z,93624.91
2023-06-24T19:44:15.789Z,93620.97
2023-06-24T19:46:44.411Z,93624.19
2023-06-24T19:49:13.077Z,93623.66
2023-06-24T19:51:41.796Z,93631.28
2023-06-24T19:54:10.661Z,93628.97
2023-06-24T19:56:39.302Z,93639.91
2023-06-24T19:59:08.041Z,93632.47
2023-06-24T20:01:36.768Z,93629.75
2023-06-24T20:04:06.611Z,93634.69
2023-06-24T20:06:35.321Z,93627.38
2023-06-24T20:09:03.976Z,93631.19
2023-06-24T20:11:32.799Z,93626.97
2023-06-24T20:14:01.413Z,93642.72
2023-06-24T20:16:29.934Z,93638.09
2023-06-24T20:18:58.323Z,93646.69
2023-06-24T20:21:26.931Z,93655.72
2023-06-24T20:23:55.229Z,93656.84
2023-06-24T20:26:23.438Z,93659.84
2023-06-24T20:28:52.340Z,93655.13
2023-06-24T20:31:20.832Z,93653.56
2023-06-24T20:33:49.764Z,93664.75
2023-06-24T20:36:18.623Z,93669.97
2023-06-24T20:38:47.325Z,93664.91
2023-06-24T20:41:24.696Z,93669.34
2023-06-24T20:43:53.474Z,93665.88
2023-06-24T20:46:22.509Z,93661.69
2023-06-24T20:48:51.420Z,93666.47
2023-06-24T20:51:20.432Z,93670.78
2023-06-24T20:53:49.262Z,93674.34
2023-06-24T20:56:18.113Z,93685.09
2023-06-24T20:58:46.917Z,93685.09
2023-06-24T21:01:18.333Z,93682.53
2023-06-24T21:03:47.037Z,93687.88
2023-06-24T21:06:15.492Z,93691.97
2023-06-24T21:08:44.255Z,93688.56
2023-06-24T21:11:12.534Z,93677.47
2023-06-24T21:13:42.052Z,93674.03
2023-06-24T21:16:10.482Z,93651.16
2023-06-24T21:18:39.195Z,93667.47
2023-06-24T21:21:07.678Z,93668.56
2023-06-24T21:23:35.683Z,93671.66
2023-06-24T21:26:04.063Z,93675.56
2023-06-24T21:28:32.446Z,93684.88
2023-06-24T21:31:00.596Z,93687.75
2023-06-24T21:33:29.136Z,93694.63
2023-06-24T21:36:01.106Z,93709.97
2023-06-24T21:38:30.030Z,93705.19
2023-06-24T21:40:58.249Z,93693.69
2023-06-24T21:43:26.284Z,93695.19
2023-06-24T21:45:54.466Z,93689.44
2023-06-24T21:48:22.754Z,93696.06
2023-06-24T21:50:50.818Z,93695.34
2023-06-24T21:53:18.992Z,93700.06
2023-06-24T21:55:46.976Z,93709.38
2023-06-24T21:58:15.284Z,93707.28
2023-06-24T22:00:44.289Z,93705.56
2023-06-24T22:03:12.488Z,93708.38
2023-06-24T22:05:40.664Z,93707.59
2023-06-24T22:08:08.774Z,93708.88
2023-06-24T22:10:37.123Z,93702.91
2023-06-24T22:13:05.454Z,93707.38
2023-06-24T22:15:33.476Z,93713.41
2023-06-24T22:18:01.766Z,93713.81
2023-06-24T22:20:29.717Z,93722.78
2023-06-24T22:22:57.735Z,93713.28
2023-06-24T22:25:25.736Z,93709.97
2023-06-24T22:27:53.827Z,93702.00
2023-06-24T22:30:21.837Z,93714.91
2023-06-24T22:32:50.142Z,93725.22
2023-06-24T22:35:18.465Z,93722.09
2023-06-24T22:37:46.522Z,93722.38
2023-06-24T22:40:14.717Z,93728.00
2023-06-24T22:42:43.276Z,93718.97
2023-06-24T22:45:13.600Z,93706.25
2023-06-24T22:47:42.094Z,93712.56
2023-06-24T22:50:10.786Z,93697.75
2023-06-24T22:52:38.781Z,93693.19
2023-06-24T22:55:07.424Z,93685.28
2023-06-24T22:57:35.225Z,93677.38
2023-06-24T23:00:03.869Z,93673.47
2023-06-24T23:02:33.024Z,93664.44
2023-06-24T23:05:01.066Z,93666.16
2023-06-24T23:07:29.459Z,93644.75
2023-06-24T23:09:57.772Z,93642.22
2023-06-24T23:12:28.249Z,93644.41
2023-06-24T23:14:57.942Z,93648.22
2023-06-24T23:17:28.649Z,93634.31
2023-06-24T23:19:58.186Z,93625.00
2023-06-24T23:22:26.459Z,93610.09
2023-06-24T23:24:54.846Z,93613.22
2023-06-24T23:27:24.569Z,93604.50
2023-06-24T23:29:58.041Z,93609.72
2023-06-24T23:32:26.313Z,93602.63
2023-06-24T23:34:54.730Z,93598.34
2023-06-24T23:37:23.870Z,93611.72
2023-06-24T23:39:52.148Z,93606.22
2023-06-24T23:42:21.045Z,93612.13
2023-06-24T23:44:49.169Z,93608.94
2023-06-24T23:47:17.157Z,93555.84
2023-06-24T23:49:45.264Z,93610.53
2023-06-24T23:52:13.611Z,93607.22
2023-06-24T23:54:41.531Z,93611.59
2023-06-24T23:57:09.601Z,93616.31
2023-06-24T23:59:37.520Z,93603.91
